Time;durP1;ratioP1;P1;durP2;ratioP2;P2;SDS_P1;SDS_P2;PMS_P1;PMS_P2;Temp;Humidity;BMP_temperature;BMP_pressure;BME280_temperature;BME280_humidity;BME280_pressure;Samples;Min_cycle;Max_cycle;Signal;HPM_P1;HPM_P2
2021/04/16 00:00:40;;;;;;;6.53;3.63;;;0.10;99.90;;;;;;5020906;28;20187;-73
2021/04/16 00:03:06;;;;;;;5.50;3.90;;;0.10;99.90;;;;;;5023142;28;20432;-72
2021/04/16 00:05:32;;;;;;;5.23;3.37;;;0.10;99.90;;;;;;5016013;28;20440;-72
2021/04/16 00:07:58;;;;;;;4.80;4.30;;;0.00;99.90;;;;;;5023065;28;20519;-72
2021/04/16 00:10:38;;;;;;;5.63;3.77;;;0.00;99.90;;;;;;5023845;28;20217;-72
2021/04/16 00:13:05;;;;;;;5.27;2.77;;;-0.10;99.90;;;;;;5016960;28;21154;-72
2021/04/16 00:15:35;;;;;;;3.90;3.50;;;-0.10;99.90;;;;;;5023567;28;20796;-72
2021/04/16 00:18:01;;;;;;;6.93;3.93;;;-0.10;99.90;;;;;;5020352;28;20499;-72
2021/04/16 00:20:29;;;;;;;3.10;2.80;;;-0.10;99.90;;;;;;5023015;28;20923;-72
2021/04/16 00:22:55;;;;;;;4.70;3.50;;;-0.20;99.90;;;;;;5021232;28;20413;-73
2021/04/16 00:25:24;;;;;;;2.73;2.53;;;-0.20;99.90;;;;;;5021899;28;20860;-72
2021/04/16 00:27:49;;;;;;;4.30;3.87;;;-0.20;99.90;;;;;;5021668;28;20493;-72
2021/04/16 00:30:17;;;;;;;4.80;3.20;;;-0.20;99.90;;;;;;5021222;28;20974;-72
2021/04/16 00:32:43;;;;;;;5.50;3.97;;;-0.20;99.90;;;;;;5022578;28;20923;-72
2021/04/16 00:35:10;;;;;;;4.27;2.97;;;-0.30;99.90;;;;;;5020220;28;20407;-72
2021/04/16 00:37:36;;;;;;;3.57;3.03;;;-0.30;99.90;;;;;;5023151;28;20255;-72
2021/04/16 00:40:05;;;;;;;5.57;4.27;;;-0.30;99.90;;;;;;5020094;28;20434;-72
2021/04/16 00:42:30;;;;;;;4.80;3.70;;;-0.30;99.90;;;;;;5023192;28;20229;-72
2021/04/16 00:44:56;;;;;;;3.33;3.03;;;-0.40;99.90;;;;;;5020645;28;20427;-72
2021/04/16 00:47:22;;;;;;;6.13;3.53;;;-0.40;99.90;;;;;;5018093;28;20229;-72
2021/04/16 00:49:55;;;;;;;3.97;2.97;;;-0.40;99.90;;;;;;5021317;28;20214;-72
2021/04/16 00:52:30;;;;;;;5.00;3.70;;;-0.40;99.90;;;;;;5020993;28;20395;-72
2021/04/16 00:54:56;;;;;;;4.60;3.30;;;-0.40;99.90;;;;;;5022400;28;20413;-72
2021/04/16 00:57:22;;;;;;;3.03;2.73;;;-0.40;99.90;;;;;;5020533;28;20448;-73
2021/04/16 00:59:54;;;;;;;5.90;3.00;;;-0.50;99.90;;;;;;5021354;28;20842;-72
2021/04/16 01:02:20;;;;;;;3.90;3.27;;;-0.50;99.90;;;;;;5021081;28;20910;-72
2021/04/16 01:04:46;;;;;;;3.30;3.00;;;-0.50;99.90;;;;;;5020793;28;20419;-72
2021/04/16 01:07:12;;;;;;;4.63;3.30;;;-0.60;99.90;;;;;;5021947;28;20464;-72
2021/04/16 01:09:38;;;;;;;2.67;2.47;;;-0.60;99.90;;;;;;5019533;28;20229;-72
2021/04/16 01:12:08;;;;;;;4.20;2.90;;;-0.60;99.90;;;;;;5021856;28;20911;-71
2021/04/16 01:14:36;;;;;;;5.10;2.73;;;-0.70;99.90;;;;;;5015740;28;20590;-72
2021/04/16 01:17:02;;;;;;;2.50;2.40;;;-0.70;99.90;;;;;;5015213;28;20879;-72
2021/04/16 01:19:58;;;;;;;5.17;3.57;;;-0.70;99.90;;;;;;5021917;28;20430;-72
2021/04/16 01:22:44;;;;;;;4.40;3.33;;;-0.80;99.90;;;;;;5019443;28;20469;-72
2021/04/16 01:25:11;;;;;;;3.90;2.80;;;-0.80;99.90;;;;;;5016846;28;20796;-72
2021/04/16 01:27:36;;;;;;;3.40;3.10;;;-0.80;99.90;;;;;;5022176;28;20437;-72
2021/04/16 01:30:16;;;;;;;3.70;2.97;;;-0.80;99.90;;;;;;5018678;28;20404;-72
2021/04/16 01:32:42;;;;;;;4.17;2.40;;;-0.80;99.90;;;;;;5017457;28;20686;-70
2021/04/16 01:35:12;;;;;;;4.53;3.40;;;-0.80;99.90;;;;;;5022048;28;20422;-73
2021/04/16 01:37:37;;;;;;;3.90;3.50;;;-0.90;99.90;;;;;;5019115;28;20453;-72
2021/04/16 01:40:06;;;;;;;5.27;3.30;;;-0.90;99.90;;;;;;5022765;28;20953;-72
2021/04/16 01:42:31;;;;;;;4.73;3.23;;;-0.80;99.90;;;;;;5014558;28;20259;-72
2021/04/16 01:44:57;;;;;;;5.10;3.40;;;-0.90;99.90;;;;;;5019678;28;20531;-72
2021/04/16 01:47:22;;;;;;;5.80;3.30;;;-0.90;99.90;;;;;;5019154;28;20408;-72
2021/04/16 01:49:50;;;;;;;13.30;3.70;;;-0.90;99.90;;;;;;5021113;28;20205;-72
2021/04/16 01:52:20;;;;;;;5.40;3.93;;;-0.90;99.90;;;;;;5018927;28;20197;-72
2021/04/16 01:54:50;;;;;;;6.73;4.60;;;-0.90;99.90;;;;;;5018717;28;20444;-72
2021/04/16 01:57:26;;;;;;;3.93;3.30;;;-0.90;99.90;;;;;;5017540;28;20860;-73
2021/04/16 01:59:52;;;;;;;4.93;4.20;;;-1.00;99.90;;;;;;5019965;28;20493;-72
2021/04/16 02:02:32;;;;;;;3.73;3.43;;;-1.00;99.90;;;;;;5020111;28;20391;-72
2021/04/16 02:04:58;;;;;;;4.20;3.87;;;-1.10;99.90;;;;;;5018058;28;20427;-72
2021/04/16 02:07:25;;;;;;;5.17;3.97;;;-1.10;99.90;;;;;;5017172;28;20976;-72
2021/04/16 02:09:50;;;;;;;5.93;4.67;;;-1.00;99.90;;;;;;5021342;28;20482;-72
2021/04/16 02:12:20;;;;;;;10.73;5.23;;;-1.10;99.90;;;;;;5019703;28;20515;-72
2021/04/16 02:14:48;;;;;;;5.60;3.83;;;-1.10;99.90;;;;;;5015097;28;20234;-72
2021/04/16 02:17:17;;;;;;;8.13;4.30;;;-1.10;99.90;;;;;;5019219;28;20423;-72
2021/04/16 02:19:44;;;;;;;6.97;4.40;;;-1.10;99.90;;;;;;5019334;28;20478;-72
2021/04/16 02:22:14;;;;;;;4.90;3.73;;;-1.10;99.90;;;;;;5019109;28;20947;-72
2021/04/16 02:24:39;;;;;;;5.37;3.50;;;-1.10;99.90;;;;;;5013273;28;20404;-72
2021/04/16 02:27:05;;;;;;;5.87;4.50;;;-1.10;99.90;;;;;;5018165;28;20911;-72
2021/04/16 02:29:31;;;;;;;4.40;3.20;;;-1.10;99.90;;;;;;5018770;28;20665;-72
2021/04/16 02:31:56;;;;;;;6.83;4.03;;;-1.10;99.90;;;;;;5017227;28;20925;-72
2021/04/16 02:34:26;;;;;;;5.07;4.53;;;-1.10;99.90;;;;;;5020832;28;20182;-72
2021/04/16 02:36:55;;;;;;;5.13;4.20;;;-1.10;99.90;;;;;;5014764;28;20297;-72
2021/04/16 02:39:21;;;;;;;5.00;4.30;;;-1.10;99.90;;;;;;5014670;28;20427;-73
2021/04/16 02:41:47;;;;;;;5.30;3.93;;;-1.10;99.90;;;;;;5017104;28;20443;-72
2021/04/16 02:44:13;;;;;;;7.60;4.73;;;-1.10;99.90;;;;;;5024726;28;20438;-72
2021/04/16 02:46:39;;;;;;;4.80;4.03;;;-1.10;99.90;;;;;;5019906;28;20651;-72
2021/04/16 02:49:04;;;;;;;4.93;3.87;;;-1.10;99.90;;;;;;5020693;28;20277;-72
2021/04/16 02:51:30;;;;;;;3.87;3.50;;;-1.10;99.90;;;;;;5024880;28;20972;-72
2021/04/16 02:53:56;;;;;;;4.40;3.90;;;-1.10;99.90;;;;;;5016099;28;20186;-72
2021/04/16 02:56:22;;;;;;;4.77;4.33;;;-1.10;99.90;;;;;;5022532;28;20197;-72
2021/04/16 02:58:48;;;;;;;6.17;3.63;;;-1.10;99.90;;;;;;5017873;28;20412;-72
2021/04/16 03:01:14;;;;;;;6.23;5.00;;;-1.10;99.90;;;;;;5022941;28;20453;-71
2021/04/16 03:03:39;;;;;;;5.90;4.40;;;-1.10;99.90;;;;;;5018926;28;20416;-72
2021/04/16 03:06:06;;;;;;;4.67;3.80;;;-1.10;99.90;;;;;;5021685;28;20186;-72
2021/04/16 03:08:33;;;;;;;4.63;3.83;;;-1.10;99.90;;;;;;5021856;28;20307;-72
2021/04/16 03:10:59;;;;;;;4.23;3.80;;;-1.10;99.90;;;;;;5022419;28;20390;-72
2021/04/16 03:13:25;;;;;;;6.23;4.23;;;-1.10;99.90;;;;;;5023777;28;20432;-72
2021/04/16 03:15:51;;;;;;;4.17;3.80;;;-1.10;99.90;;;;;;5023509;28;20453;-73
2021/04/16 03:18:17;;;;;;;9.97;4.33;;;-1.10;99.90;;;;;;5023534;28;20422;-73
2021/04/16 03:20:43;;;;;;;4.87;4.33;;;-1.10;99.90;;;;;;5019060;28;20432;-72
2021/04/16 03:23:10;;;;;;;9.87;4.87;;;-1.10;99.90;;;;;;5024628;28;20432;-71
2021/04/16 03:25:35;;;;;;;6.07;4.03;;;-1.20;99.90;;;;;;5014096;28;20185;-72
2021/04/16 03:28:01;;;;;;;8.20;3.87;;;-1.20;99.90;;;;;;5024503;28;20470;-72
2021/04/16 03:30:27;;;;;;;5.50;3.60;;;-1.20;99.90;;;;;;5019783;28;20212;-71
2021/04/16 03:32:53;;;;;;;4.53;3.50;;;-1.20;99.90;;;;;;5019227;28;20184;-72
2021/04/16 03:35:20;;;;;;;7.33;4.40;;;-1.20;99.90;;;;;;5021096;28;20889;-72
2021/04/16 03:37:46;;;;;;;12.13;5.00;;;-1.20;99.90;;;;;;5021569;28;20201;-71
2021/04/16 03:40:14;;;;;;;7.87;4.20;;;-1.20;99.90;;;;;;5017624;28;20460;-71
2021/04/16 03:42:40;;;;;;;4.60;4.20;;;-1.20;99.90;;;;;;5013177;28;20442;-72
2021/04/16 03:45:07;;;;;;;7.87;4.00;;;-1.20;99.90;;;;;;5023031;28;20431;-72
2021/04/16 03:47:33;;;;;;;8.57;4.63;;;-1.30;99.90;;;;;;5018222;28;20307;-71
2021/04/16 03:49:58;;;;;;;17.23;5.00;;;-1.30;99.90;;;;;;5023782;28;20937;-72
2021/04/16 03:52:26;;;;;;;7.97;4.60;;;-1.30;99.90;;;;;;5021615;28;20397;-72
2021/04/16 03:54:51;;;;;;;6.33;4.53;;;-1.40;99.90;;;;;;5017593;28;20185;-72
2021/04/16 03:57:18;;;;;;;11.23;5.50;;;-1.30;99.90;;;;;;5021775;28;20497;-71
2021/04/16 03:59:44;;;;;;;6.60;4.70;;;-1.30;99.90;;;;;;5021239;28;20184;-71
2021/04/16 04:02:11;;;;;;;9.57;5.57;;;-1.40;99.90;;;;;;5021031;28;20429;-72
2021/04/16 04:04:36;;;;;;;4.20;3.70;;;-1.40;99.90;;;;;;5022335;28;20471;-73
2021/04/16 04:07:02;;;;;;;11.13;5.20;;;-1.40;99.90;;;;;;5017331;28;20474;-73
2021/04/16 04:09:27;;;;;;;10.90;5.10;;;-1.40;99.90;;;;;;5013969;28;22175;-72
2021/04/16 04:11:53;;;;;;;5.10;4.70;;;-1.50;99.90;;;;;;5020706;28;20261;-72
2021/04/16 04:14:19;;;;;;;7.23;5.43;;;-1.50;99.90;;;;;;5021752;28;20178;-72
2021/04/16 04:16:57;;;;;;;5.30;4.50;;;-1.50;99.90;;;;;;5016690;28;20291;-71
2021/04/16 04:19:25;;;;;;;9.17;5.50;;;-1.50;99.90;;;;;;5020877;28;20414;-72
2021/04/16 04:21:52;;;;;;;8.50;5.00;;;-1.60;99.90;;;;;;5013828;28;20443;-73
2021/04/16 04:24:18;;;;;;;6.53;4.20;;;-1.50;99.90;;;;;;5015654;28;20451;-72
2021/04/16 04:26:44;;;;;;;11.47;4.80;;;-1.50;99.90;;;;;;5021241;28;20446;-72
2021/04/16 04:29:10;;;;;;;8.97;6.90;;;-1.50;99.90;;;;;;5018470;28;20440;-71
2021/04/16 04:31:46;;;;;;;9.63;5.53;;;-1.50;99.90;;;;;;5018795;28;20415;-72
2021/04/16 04:34:16;;;;;;;9.60;4.87;;;-1.50;99.90;;;;;;5015922;28;20477;-72
2021/04/16 04:36:42;;;;;;;7.70;5.30;;;-1.50;99.90;;;;;;5019654;28;20447;-72
2021/04/16 04:39:08;;;;;;;6.77;4.73;;;-1.50;99.90;;;;;;5020039;28;20881;-72
2021/04/16 04:41:33;;;;;;;7.73;4.90;;;-1.50;99.90;;;;;;5023500;28;20191;-72
2021/04/16 04:43:59;;;;;;;8.33;5.20;;;-1.50;99.90;;;;;;5019261;28;20739;-71
2021/04/16 04:46:24;;;;;;;7.50;5.17;;;-1.40;99.90;;;;;;5020498;28;20264;-71
2021/04/16 04:48:50;;;;;;;6.07;5.17;;;-1.40;99.90;;;;;;5023938;28;20174;-72
2021/04/16 04:51:16;;;;;;;8.97;7.07;;;-1.30;99.90;;;;;;5020357;28;20185;-72
2021/04/16 04:53:42;;;;;;;8.83;5.50;;;-1.30;99.90;;;;;;5021972;28;20188;-71
2021/04/16 04:56:07;;;;;;;7.83;5.53;;;-1.20;99.90;;;;;;5027422;28;20428;-71
2021/04/16 04:58:33;;;;;;;15.63;5.40;;;-1.20;99.90;;;;;;5015733;28;20217;-71
2021/04/16 05:00:58;;;;;;;8.10;5.47;;;-1.10;99.90;;;;;;5023209;28;20176;-72
2021/04/16 05:03:24;;;;;;;6.83;5.67;;;-1.10;99.90;;;;;;5023524;28;20190;-71
2021/04/16 05:05:49;;;;;;;5.93;4.60;;;-1.00;99.90;;;;;;5019734;28;20569;-71
2021/04/16 05:08:15;;;;;;;5.93;4.70;;;-1.00;99.90;;;;;;5020674;28;20214;-71
2021/04/16 05:10:40;;;;;;;6.83;5.80;;;-0.90;99.90;;;;;;5023088;28;20557;-71
2021/04/16 05:13:06;;;;;;;8.10;5.20;;;-0.80;99.90;;;;;;5023647;28;20196;-73
2021/04/16 05:15:32;;;;;;;6.63;5.70;;;-0.70;99.90;;;;;;5022202;28;20166;-72
2021/04/16 05:17:58;;;;;;;10.47;6.37;;;-0.60;99.90;;;;;;5019211;28;20438;-72
2021/04/16 05:20:23;;;;;;;8.00;5.60;;;-0.50;99.90;;;;;;5021750;28;20198;-72
2021/04/16 05:22:49;;;;;;;6.77;5.30;;;-0.20;99.90;;;;;;5027514;28;20191;-72
2021/04/16 05:25:14;;;;;;;6.80;4.67;;;0.30;99.90;;;;;;5026378;28;20183;-72
2021/04/16 05:27:40;;;;;;;9.37;5.10;;;0.90;99.90;;;;;;5023749;28;20206;-72
2021/04/16 05:30:09;;;;;;;7.77;5.57;;;1.60;99.90;;;;;;5022872;28;20185;-72
2021/04/16 05:32:34;;;;;;;4.97;4.13;;;2.10;99.90;;;;;;5015784;28;20259;-72
2021/04/16 05:35:00;;;;;;;6.23;4.83;;;2.10;99.90;;;;;;5019525;28;20937;-72
2021/04/16 05:37:25;;;;;;;6.60;5.03;;;2.00;99.90;;;;;;5025727;28;20749;-72
2021/04/16 05:39:51;;;;;;;6.20;5.50;;;1.70;99.90;;;;;;5021133;28;20178;-72
2021/04/16 05:42:19;;;;;;;10.50;5.53;;;1.50;99.90;;;;;;5019130;28;20188;-72
2021/04/16 05:44:44;;;;;;;5.17;4.67;;;1.40;99.90;;;;;;5021691;28;20193;-71
2021/04/16 05:47:10;;;;;;;7.83;6.30;;;1.20;99.90;;;;;;5018896;28;20497;-72
2021/04/16 05:49:35;;;;;;;8.40;6.03;;;1.00;99.90;;;;;;5023115;28;20186;-72
2021/04/16 05:52:02;;;;;;;8.67;5.80;;;1.00;99.90;;;;;;5019414;28;20194;-72
2021/04/16 05:54:27;;;;;;;11.73;4.87;;;0.90;99.90;;;;;;5023073;28;20530;-73
2021/04/16 05:56:53;;;;;;;6.07;5.33;;;0.90;99.90;;;;;;5020939;28;20481;-73
2021/04/16 05:59:18;;;;;;;5.20;4.70;;;0.90;99.90;;;;;;5022557;28;20697;-72
2021/04/16 06:01:45;;;;;;;9.33;5.40;;;1.00;99.90;;;;;;5022157;28;20192;-71
2021/04/16 06:04:21;;;;;;;10.43;5.03;;;1.10;99.90;;;;;;5019474;28;20185;-72
2021/04/16 06:06:47;;;;;;;9.50;6.10;;;1.20;99.90;;;;;;5020096;28;20496;-72
2021/04/16 06:09:13;;;;;;;13.63;5.50;;;1.30;99.90;;;;;;5018885;28;20417;-73
2021/04/16 06:11:38;;;;;;;9.13;5.90;;;1.40;99.90;;;;;;5019432;28;20415;-72
2021/04/16 06:14:05;;;;;;;10.50;5.70;;;1.50;99.90;;;;;;5026873;28;20179;-72
2021/04/16 06:16:31;;;;;;;7.90;5.80;;;1.60;99.90;;;;;;5020616;28;20199;-73
2021/04/16 06:18:56;;;;;;;6.93;6.00;;;1.80;99.90;;;;;;5029595;28;20769;-73
2021/04/16 06:21:22;;;;;;;8.57;5.30;;;1.90;99.90;;;;;;5022085;28;20398;-72
2021/04/16 06:23:47;;;;;;;5.47;4.97;;;2.20;99.90;;;;;;5025045;28;20178;-72
2021/04/16 06:26:13;;;;;;;6.30;5.10;;;2.40;99.90;;;;;;5022399;28;20178;-72
2021/04/16 06:28:39;;;;;;;5.87;5.27;;;2.50;99.90;;;;;;5022644;28;20227;-72
2021/04/16 06:31:04;;;;;;;8.17;5.90;;;2.70;99.90;;;;;;5027157;28;20566;-72
2021/04/16 06:33:33;;;;;;;7.10;5.30;;;2.80;99.90;;;;;;5025796;28;21028;-71
2021/04/16 06:36:02;;;;;;;6.50;5.10;;;3.00;99.90;;;;;;5025818;28;20236;-72
2021/04/16 06:38:33;;;;;;;6.43;5.83;;;3.10;99.90;;;;;;5023673;28;20963;-72
2021/04/16 06:41:01;;;;;;;6.90;5.03;;;3.40;99.90;;;;;;5025418;28;20487;-72
2021/04/16 06:43:37;;;;;;;5.47;4.97;;;3.70;99.90;;;;;;5017773;28;20404;-73
2021/04/16 06:46:05;;;;;;;11.43;5.30;;;3.70;99.90;;;;;;5022213;28;20406;-72
2021/04/16 06:48:30;;;;;;;12.73;6.00;;;3.90;99.90;;;;;;5021704;28;20545;-73
2021/04/16 06:51:00;;;;;;;5.97;5.37;;;4.00;99.90;;;;;;5024601;28;20393;-72
2021/04/16 06:53:51;;;;;;;5.30;4.90;;;4.00;99.90;;;;;;5022424;28;20185;-73
2021/04/16 06:56:42;;;;;;;5.97;5.27;;;4.00;99.90;;;;;;5023689;28;20403;-73
2021/04/16 06:59:15;;;;;;;5.40;4.90;;;3.90;99.90;;;;;;5018118;28;20483;-72
2021/04/16 07:01:47;;;;;;;6.10;5.50;;;3.70;99.90;;;;;;5019145;28;20423;-73
2021/04/16 07:04:25;;;;;;;7.60;5.83;;;3.80;99.90;;;;;;5025814;28;20417;-72
2021/04/16 07:06:53;;;;;;;5.80;5.17;;;3.80;99.90;;;;;;5025752;28;20431;-72
2021/04/16 07:09:36;;;;;;;6.43;5.40;;;3.80;99.90;;;;;;5021794;28;20431;-72
2021/04/16 07:12:01;;;;;;;6.97;6.27;;;3.90;99.90;;;;;;5025171;28;20478;-72
2021/04/16 07:14:29;;;;;;;5.80;5.30;;;3.90;99.90;;;;;;5022300;28;20421;-72
2021/04/16 07:16:56;;;;;;;6.17;5.57;;;4.00;99.90;;;;;;5023975;28;20227;-73
2021/04/16 07:19:27;;;;;;;6.60;5.90;;;4.30;99.90;;;;;;5021656;28;20534;-72
2021/04/16 07:22:01;;;;;;;6.20;5.60;;;4.40;99.90;;;;;;5020679;28;20431;-72
2021/04/16 07:24:26;;;;;;;5.57;5.07;;;4.60;99.90;;;;;;5025610;28;20984;-72
2021/04/16 07:26:59;;;;;;;6.23;5.70;;;4.70;99.90;;;;;;5023027;28;20547;-73
2021/04/16 07:29:47;;;;;;;7.77;6.13;;;4.70;99.90;;;;;;5017697;28;20191;-73
2021/04/16 07:32:14;;;;;;;5.97;4.90;;;4.90;99.90;;;;;;5018749;28;20499;-72
2021/04/16 07:34:48;;;;;;;10.53;5.30;;;5.00;99.90;;;;;;5021676;28;20420;-72
2021/04/16 07:37:22;;;;;;;7.57;5.00;;;5.10;99.90;;;;;;5026686;28;20537;-72
2021/04/16 07:39:58;;;;;;;6.10;5.60;;;5.30;99.90;;;;;;5022802;28;20487;-72
2021/04/16 07:42:37;;;;;;;4.67;4.27;;;5.40;99.90;;;;;;5020415;28;20462;-73
2021/04/16 07:45:05;;;;;;;5.40;4.90;;;5.40;99.90;;;;;;5020626;28;20801;-73
2021/04/16 07:47:32;;;;;;;5.97;4.90;;;5.30;99.90;;;;;;5024459;28;20440;-72
2021/04/16 07:50:25;;;;;;;8.73;5.90;;;5.20;99.90;;;;;;5021825;28;20426;-72
2021/04/16 07:52:50;;;;;;;5.30;4.80;;;5.30;99.90;;;;;;5018943;28;20515;-70
2021/04/16 07:55:31;;;;;;;11.63;5.43;;;5.60;99.90;;;;;;5022254;28;20491;-70
2021/04/16 07:58:14;;;;;;;5.90;5.30;;;5.60;99.90;;;;;;5022649;28;20203;-71
2021/04/16 08:00:44;;;;;;;6.27;5.77;;;5.70;99.90;;;;;;5018043;28;20959;-70
2021/04/16 08:03:25;;;;;;;6.10;5.50;;;5.70;99.90;;;;;;5023612;28;20944;-70
2021/04/16 08:05:53;;;;;;;7.23;5.40;;;5.80;99.90;;;;;;5022291;28;20424;-71
2021/04/16 08:08:20;;;;;;;6.13;5.50;;;5.80;99.90;;;;;;5021295;28;20833;-70
2021/04/16 08:10:51;;;;;;;5.33;4.93;;;5.80;99.90;;;;;;5021556;28;20472;-71
2021/04/16 08:13:26;;;;;;;6.20;5.60;;;5.80;99.90;;;;;;5022710;28;20458;-71
2021/04/16 08:15:54;;;;;;;5.50;5.00;;;6.00;99.90;;;;;;5021932;28;20746;-71
2021/04/16 08:18:26;;;;;;;12.70;5.57;;;5.90;99.90;;;;;;5021880;28;20539;-71
2021/04/16 08:21:07;;;;;;;4.80;4.50;;;5.80;99.90;;;;;;5022126;28;20413;-71
2021/04/16 08:23:45;;;;;;;7.50;4.80;;;5.80;99.90;;;;;;5020273;28;20852;-71
2021/04/16 08:26:11;;;;;;;5.90;5.30;;;5.60;99.90;;;;;;5016996;28;20459;-71
2021/04/16 08:28:43;;;;;;;7.63;5.50;;;5.40;99.90;;;;;;5023772;28;20872;-71
2021/04/16 08:31:13;;;;;;;6.20;5.60;;;5.40;99.90;;;;;;5017085;28;20738;-72
2021/04/16 08:33:46;;;;;;;5.07;4.67;;;5.40;99.90;;;;;;5023508;28;21031;-72
2021/04/16 08:36:31;;;;;;;6.43;5.77;;;5.40;99.90;;;;;;5020624;28;20518;-71
2021/04/16 08:39:07;;;;;;;7.13;5.93;;;5.60;99.90;;;;;;5021252;28;20412;-73
2021/04/16 08:41:42;;;;;;;6.17;5.67;;;5.70;99.90;;;;;;5023529;28;20425;-71
2021/04/16 08:44:10;;;;;;;6.03;5.53;;;5.90;99.90;;;;;;5016618;28;20436;-71
2021/04/16 08:46:42;;;;;;;6.40;5.57;;;6.10;99.90;;;;;;5015434;28;20440;-71
2021/04/16 08:49:20;;;;;;;5.87;5.37;;;6.30;99.90;;;;;;5015918;28;20420;-71
2021/04/16 08:51:50;;;;;;;7.57;6.90;;;6.50;99.90;;;;;;5018725;28;20421;-71
2021/04/16 08:54:25;;;;;;;5.20;4.70;;;6.50;99.90;;;;;;5021795;28;20432;-71
2021/04/16 08:57:07;;;;;;;6.33;5.60;;;6.50;99.90;;;;;;5021109;28;20488;-71
2021/04/16 08:59:59;;;;;;;6.60;5.93;;;6.40;99.90;;;;;;5019446;28;20418;-72
2021/04/16 09:02:37;;;;;;;5.07;4.67;;;6.50;99.90;;;;;;5020617;28;20502;-71
2021/04/16 09:05:14;;;;;;;5.93;5.43;;;7.00;99.90;;;;;;5019365;28;20426;-71
2021/04/16 09:07:43;;;;;;;5.70;5.13;;;7.50;99.90;;;;;;5009669;28;20474;-71
2021/04/16 09:10:31;;;;;;;6.33;5.20;;;7.60;99.90;;;;;;5021312;28;20795;-72
2021/04/16 09:13:02;;;;;;;8.50;5.80;;;7.20;99.90;;;;;;5020411;28;20416;-72
2021/04/16 09:15:33;;;;;;;6.00;5.47;;;7.10;99.90;;;;;;5021277;28;20423;-71
2021/04/16 09:17:59;;;;;;;5.90;5.40;;;6.80;99.90;;;;;;5019940;28;20446;-71
2021/04/16 09:20:26;;;;;;;5.67;5.27;;;6.60;99.90;;;;;;5021744;28;20491;-71
2021/04/16 09:22:56;;;;;;;5.30;4.90;;;6.60;99.90;;;;;;5019127;28;20436;-71
2021/04/16 09:25:43;;;;;;;5.40;4.93;;;6.60;99.90;;;;;;5021263;28;20923;-72
2021/04/16 09:28:23;;;;;;;5.50;4.97;;;6.80;99.90;;;;;;5016737;28;20458;-71
2021/04/16 09:31:24;;;;;;;5.80;5.40;;;6.70;99.90;;;;;;5020515;28;20397;-71
2021/04/16 09:34:23;;;;;;;5.80;5.20;;;6.50;99.90;;;;;;5020001;28;20414;-71
2021/04/16 09:37:26;;;;;;;6.27;5.67;;;6.40;99.90;;;;;;5019409;28;20444;-71
2021/04/16 09:40:13;;;;;;;7.90;6.07;;;6.30;99.90;;;;;;4963921;28;20433;-71
2021/04/16 09:42:46;;;;;;;5.70;5.20;;;6.10;99.90;;;;;;5014058;28;20427;-70
2021/04/16 09:45:34;;;;;;;5.40;5.00;;;6.00;99.90;;;;;;5021253;28;20418;-71
2021/04/16 09:48:08;;;;;;;6.57;5.87;;;6.00;99.90;;;;;;5014983;28;20460;-71
2021/04/16 09:50:58;;;;;;;11.63;5.63;;;6.00;99.90;;;;;;5015659;28;20403;-71
2021/04/16 09:53:27;;;;;;;5.77;5.17;;;6.30;99.90;;;;;;5024802;28;20471;-71
2021/04/16 09:55:58;;;;;;;5.87;5.37;;;6.50;99.90;;;;;;5023706;28;20423;-70
2021/04/16 09:58:32;;;;;;;5.67;5.10;;;7.10;99.90;;;;;;5025335;28;20419;-72
2021/04/16 10:00:57;;;;;;;5.73;5.33;;;8.00;99.90;;;;;;5023435;28;21014;-71
2021/04/16 10:03:47;;;;;;;5.40;4.80;;;8.80;99.90;;;;;;5025415;28;20426;-71
2021/04/16 10:06:13;;;;;;;6.30;5.70;;;9.20;99.90;;;;;;5022553;28;20193;-71
2021/04/16 10:08:39;;;;;;;5.83;5.33;;;9.60;99.90;;;;;;5025467;28;20807;-72
2021/04/16 10:11:07;;;;;;;7.60;4.80;;;9.60;99.90;;;;;;5024693;28;20591;-71
2021/04/16 10:13:40;;;;;;;6.17;5.57;;;9.20;99.90;;;;;;5026327;28;20771;-71
2021/04/16 10:16:23;;;;;;;9.07;6.50;;;8.60;99.90;;;;;;5019672;28;20797;-69
2021/04/16 10:18:49;;;;;;;7.70;6.03;;;8.10;99.90;;;;;;5024706;28;21003;-72
2021/04/16 10:21:15;;;;;;;10.93;6.53;;;7.70;99.90;;;;;;5024398;28;20545;-71
2021/04/16 10:54:25;;;;;;;5.97;5.37;;;7.70;99.90;;;;;;5007289;28;20784;-72
2021/04/16 11:06:25;;;;;;;15.40;11.20;;;7.70;99.90;;;;;;5022096;28;20435;-72
2021/04/16 11:45:12;;;;;;;4.20;3.80;;;7.20;99.90;;;;;;5017660;28;20465;-72
2021/04/16 12:39:11;;;;;;;5.30;4.27;;;7.40;99.90;;;;;;5017200;28;20501;-72
2021/04/16 12:41:43;;;;;;;4.13;3.83;;;7.50;99.90;;;;;;5023199;28;20450;-71
2021/04/16 12:44:34;;;;;;;4.70;4.30;;;7.40;99.90;;;;;;5020417;28;20430;-72
2021/04/16 12:47:04;;;;;;;4.53;4.23;;;7.50;99.90;;;;;;5007178;28;20712;-72
2021/04/16 12:49:30;;;;;;;5.07;4.67;;;7.50;99.90;;;;;;5018815;28;20423;-72
2021/04/16 12:51:56;;;;;;;5.10;4.70;;;7.40;99.90;;;;;;5015620;28;20396;-72
2021/04/16 12:54:22;;;;;;;4.70;4.30;;;7.30;99.90;;;;;;5021667;28;20842;-72
2021/04/16 12:56:51;;;;;;;4.20;3.80;;;7.60;99.90;;;;;;5020771;28;20464;-72
2021/04/16 12:59:22;;;;;;;9.10;4.10;;;7.70;99.90;;;;;;5020839;28;20183;-73
2021/04/16 13:01:50;;;;;;;5.20;4.00;;;7.90;99.90;;;;;;5020885;28;20430;-72
2021/04/16 13:04:18;;;;;;;4.80;4.40;;;8.10;99.90;;;;;;5020864;28;20938;-72
2021/04/16 13:06:46;;;;;;;3.70;3.50;;;8.20;99.90;;;;;;5018107;28;20449;-72
2021/04/16 13:09:14;;;;;;;5.03;4.57;;;8.00;99.90;;;;;;5021826;28;20488;-73
2021/04/16 13:11:40;;;;;;;5.20;4.20;;;8.10;99.90;;;;;;5019601;28;20479;-72
2021/04/16 13:14:05;;;;;;;4.73;4.17;;;8.10;99.90;;;;;;5019590;28;20993;-72
2021/04/16 13:16:31;;;;;;;5.80;4.30;;;8.10;99.90;;;;;;5019105;28;20537;-72
2021/04/16 13:19:01;;;;;;;4.77;4.37;;;8.20;99.90;;;;;;5019504;28;20218;-72
2021/04/16 13:21:32;;;;;;;3.80;3.50;;;8.10;99.90;;;;;;5020858;28;20190;-73
2021/04/16 13:23:59;;;;;;;6.20;4.70;;;8.20;99.90;;;;;;5022110;28;20439;-72
2021/04/16 13:26:25;;;;;;;3.50;3.20;;;8.20;99.90;;;;;;5018470;28;20442;-73
2021/04/16 13:28:51;;;;;;;3.70;3.50;;;8.40;99.90;;;;;;5020725;28;20470;-73
2021/04/16 13:31:17;;;;;;;3.43;3.13;;;8.40;99.90;;;;;;5019529;28;20517;-74
2021/04/16 13:33:45;;;;;;;4.00;3.30;;;8.40;99.90;;;;;;5019214;28;20520;-72
2021/04/16 13:36:16;;;;;;;3.67;3.27;;;8.60;99.90;;;;;;5019389;28;20459;-72
2021/04/16 13:38:43;;;;;;;4.40;4.03;;;8.60;99.90;;;;;;5022669;28;20398;-72
2021/04/16 13:41:09;;;;;;;3.80;3.50;;;8.70;99.90;;;;;;5022479;28;20400;-72
2021/04/16 13:43:35;;;;;;;4.50;3.40;;;8.90;99.90;;;;;;5021311;28;20423;-72
2021/04/16 13:46:03;;;;;;;3.97;3.37;;;8.80;99.90;;;;;;5017292;28;20445;-71
2021/04/16 13:48:29;;;;;;;3.90;3.20;;;8.80;99.90;;;;;;5022028;28;20270;-71
2021/04/16 13:50:54;;;;;;;7.30;3.87;;;8.70;99.90;;;;;;5019553;28;20927;-71
2021/04/16 13:53:20;;;;;;;4.33;4.03;;;8.80;99.90;;;;;;5019528;28;20223;-71
2021/04/16 13:55:46;;;;;;;3.90;3.60;;;8.80;99.90;;;;;;5020534;28;20179;-71
2021/04/16 13:58:11;;;;;;;6.33;3.27;;;8.70;99.90;;;;;;5019541;28;20706;-71
2021/04/16 14:00:39;;;;;;;3.53;3.20;;;8.80;99.90;;;;;;5021817;28;20199;-71
2021/04/16 14:03:10;;;;;;;3.13;2.90;;;8.70;99.90;;;;;;5018825;28;20185;-72
2021/04/16 14:05:35;;;;;;;4.20;2.70;;;8.80;99.90;;;;;;5015101;28;20487;-72
2021/04/16 14:08:02;;;;;;;2.70;2.60;;;9.00;99.90;;;;;;5021862;28;20477;-71
2021/04/16 14:10:28;;;;;;;4.00;2.87;;;9.10;99.90;;;;;;5018873;28;20190;-72
2021/04/16 14:12:54;;;;;;;2.70;2.50;;;9.00;99.90;;;;;;5018816;28;20411;-72
2021/04/16 14:15:21;;;;;;;2.87;2.63;;;9.00;99.90;;;;;;5017203;28;20428;-72
2021/04/16 14:17:50;;;;;;;2.20;2.10;;;9.00;99.90;;;;;;5018931;28;20231;-72
2021/04/16 14:20:22;;;;;;;2.70;2.50;;;8.80;99.90;;;;;;5020130;28;20447;-73
2021/04/16 14:22:50;;;;;;;3.53;3.23;;;8.80;99.90;;;;;;5020470;28;20426;-72
2021/04/16 14:25:35;;;;;;;4.20;3.07;;;8.80;99.90;;;;;;5020010;28;20439;-72
2021/04/16 14:28:02;;;;;;;2.60;2.40;;;8.50;99.90;;;;;;5018075;28;20472;-72
2021/04/16 14:30:30;;;;;;;2.20;2.00;;;8.50;99.90;;;;;;5021591;28;21187;-72
2021/04/16 14:32:58;;;;;;;2.60;2.40;;;8.40;99.90;;;;;;5019275;28;20484;-71
2021/04/16 14:35:26;;;;;;;2.63;2.43;;;8.40;99.90;;;;;;5020288;28;20490;-71
2021/04/16 14:37:52;;;;;;;2.70;2.50;;;8.40;99.90;;;;;;5021368;28;20473;-71
2021/04/16 14:40:18;;;;;;;2.53;2.43;;;8.40;99.90;;;;;;5023516;28;20423;-71
2021/04/16 14:42:45;;;;;;;2.60;2.40;;;8.40;99.90;;;;;;5024356;28;20457;-71
2021/04/16 14:45:13;;;;;;;2.40;2.30;;;8.40;99.90;;;;;;5022239;28;20940;-71
2021/04/16 14:47:39;;;;;;;2.60;2.40;;;8.40;99.90;;;;;;5022688;28;20477;-71
2021/04/16 14:50:09;;;;;;;3.63;2.80;;;8.30;99.90;;;;;;5016530;28;20430;-72
2021/04/16 14:52:35;;;;;;;2.50;2.30;;;8.40;99.90;;;;;;5017051;28;20259;-72
2021/04/16 14:55:04;;;;;;;1.80;1.70;;;8.30;99.90;;;;;;5024260;28;20487;-71
2021/04/16 14:57:35;;;;;;;2.20;2.10;;;8.30;99.90;;;;;;5021406;28;20439;-71
2021/04/16 15:00:04;;;;;;;2.03;1.93;;;8.30;99.90;;;;;;5019657;28;20441;-71
2021/04/16 15:02:29;;;;;;;2.00;1.90;;;8.30;99.90;;;;;;5020801;28;20424;-71
2021/04/16 15:04:55;;;;;;;2.47;2.27;;;8.30;99.90;;;;;;5023383;28;20853;-72
2021/04/16 15:07:24;;;;;;;2.10;2.00;;;8.20;99.90;;;;;;5023053;28;20299;-71
2021/04/16 15:09:54;;;;;;;2.80;2.60;;;8.30;99.90;;;;;;5020676;28;20170;-71
2021/04/16 15:12:22;;;;;;;3.83;2.47;;;8.30;99.90;;;;;;5024639;28;20435;-72